Time;durP1;ratioP1;P1;durP2;ratioP2;P2;SDS_P1;SDS_P2;PMS_P1;PMS_P2;Temp;Humidity;BMP_temperature;BMP_pressure;BME280_temperature;BME280_humidity;BME280_pressure;Samples;Min_cycle;Max_cycle;Signal;HPM_P1;HPM_P2
2024/01/22 01:08:01;;;;;;;14.38;2.75;;;;;;;5.62;100.00;98781.69;5092375;27;20386;-77
2024/01/22 01:10:28;;;;;;;18.95;3.17;;;;;;;5.67;100.00;98777.44;5036864;28;20505;-77
2024/01/22 01:12:53;;;;;;;17.65;4.45;;;;;;;5.68;100.00;98780.91;5036563;28;20063;-77
2024/01/22 01:15:20;;;;;;;9.60;2.45;;;;;;;5.88;100.00;98797.06;5074163;28;20028;-77
2024/01/22 01:17:46;;;;;;;10.52;2.20;;;;;;;5.96;100.00;98794.28;5042051;28;20095;-77
2024/01/22 01:20:15;;;;;;;10.80;2.63;;;;;;;5.90;100.00;98795.03;5039338;28;20094;-77
2024/01/22 01:22:40;;;;;;;6.60;2.25;;;;;;;5.79;100.00;98799.03;5044051;28;20487;-75
2024/01/22 01:25:06;;;;;;;9.02;2.72;;;;;;;5.74;100.00;98812.13;5071878;28;20033;-77
2024/01/22 01:27:32;;;;;;;4.22;1.17;;;;;;;5.76;100.00;98812.75;5036685;28;20035;-77
2024/01/22 01:29:58;;;;;;;17.40;2.67;;;;;;;5.76;100.00;98814.63;5055050;28;20021;-77
2024/01/22 01:32:23;;;;;;;12.60;2.70;;;;;;;5.76;100.00;98822.63;5038128;28;20094;-77
2024/01/22 01:34:49;;;;;;;9.52;2.60;;;;;;;5.88;100.00;98826.41;5039173;28;20441;-77
2024/01/22 01:37:15;;;;;;;10.88;2.55;;;;;;;6.01;100.00;98847.06;5037689;28;20046;-77
2024/01/22 01:39:40;;;;;;;11.73;3.03;;;;;;;6.15;100.00;98889.66;5038756;28;20040;-77
2024/01/22 01:42:06;;;;;;;7.50;2.30;;;;;;;5.88;100.00;98912.59;5054517;28;20114;-79
2024/01/22 01:44:38;;;;;;;8.75;3.28;;;;;;;5.31;100.00;98857.44;5038056;28;20494;-79
2024/01/22 01:47:06;;;;;;;4.28;1.75;;;;;;;4.92;100.00;98871.13;5051880;28;20511;-78
2024/01/22 01:49:32;;;;;;;2.22;1.20;;;;;;;4.57;100.00;98868.22;5063821;28;20379;-79
2024/01/22 01:51:58;;;;;;;3.03;1.00;;;;;;;4.33;100.00;98886.09;5038730;28;20032;-78
2024/01/22 01:54:25;;;;;;;4.47;1.48;;;;;;;4.27;100.00;98886.00;5071766;28;20426;-78
2024/01/22 01:56:51;;;;;;;2.00;1.08;;;;;;;4.35;100.00;98889.41;5054033;28;20090;-78
2024/01/22 01:59:17;;;;;;;2.80;1.33;;;;;;;4.38;100.00;98902.34;5033952;28;20064;-78
2024/01/22 02:01:42;;;;;;;3.25;0.90;;;;;;;4.47;100.00;98899.59;5036508;28;20460;-78
2024/01/22 02:04:08;;;;;;;7.10;1.92;;;;;;;4.48;100.00;98914.56;5089491;28;20030;-78
2024/01/22 02:06:34;;;;;;;6.40;1.45;;;;;;;4.54;100.00;98905.84;5052938;28;20043;-78
2024/01/22 02:08:59;;;;;;;2.63;1.85;;;;;;;4.65;100.00;98915.22;5056953;28;20134;-78
2024/01/22 02:11:25;;;;;;;2.10;1.38;;;;;;;4.70;100.00;98904.84;5040760;28;20476;-77
2024/01/22 02:13:52;;;;;;;7.57;1.48;;;;;;;4.74;100.00;98916.78;5016343;28;20071;-77
2024/01/22 02:16:18;;;;;;;5.80;1.33;;;;;;;4.78;100.00;98923.38;5022912;28;20032;-77
2024/01/22 02:18:44;;;;;;;6.10;1.73;;;;;;;4.77;100.00;98933.22;5039040;28;20028;-77
2024/01/22 02:21:10;;;;;;;4.18;2.38;;;;;;;4.91;100.00;98936.88;5027229;28;20033;-77
2024/01/22 02:23:36;;;;;;;9.18;1.95;;;;;;;5.05;100.00;98946.72;5024016;28;20386;-77
2024/01/22 02:26:02;;;;;;;8.68;2.03;;;;;;;5.14;100.00;98943.97;5025129;28;20033;-77
2024/01/22 02:28:31;;;;;;;4.32;1.40;;;;;;;5.29;100.00;98958.06;5040709;28;20032;-77
2024/01/22 02:30:57;;;;;;;5.00;1.75;;;;;;;5.31;100.00;98953.38;5040797;28;20059;-77
2024/01/22 02:33:22;;;;;;;1.40;0.90;;;;;;;5.17;100.00;98939.06;5023679;28;20463;-77
2024/01/22 02:35:48;;;;;;;3.05;1.27;;;;;;;5.05;100.00;98962.72;5056951;28;20067;-77
2024/01/22 02:38:17;;;;;;;1.40;1.05;;;;;;;4.98;100.00;98969.78;5023007;28;20040;-77
2024/01/22 02:40:42;;;;;;;7.80;2.22;;;;;;;4.95;100.00;98975.47;5024879;28;20128;-78
2024/01/22 02:43:08;;;;;;;4.40;1.17;;;;;;;4.94;100.00;98984.44;5023034;28;20131;-78
2024/01/22 02:45:34;;;;;;;13.40;2.58;;;;;;;4.93;100.00;99000.63;5025018;28;20033;-78
2024/01/22 02:47:59;;;;;;;14.88;1.90;;;;;;;4.93;100.00;99016.63;5021979;28;20493;-78
2024/01/22 02:50:25;;;;;;;7.13;1.80;;;;;;;5.18;100.00;99014.50;5024913;28;20422;-77
2024/01/22 02:52:51;;;;;;;6.53;2.03;;;;;;;5.48;100.00;99036.66;5024654;28;20075;-78
2024/01/22 02:55:17;;;;;;;9.85;2.65;;;;;;;5.68;100.00;99043.03;5038874;28;20040;-78
2024/01/22 02:57:42;;;;;;;9.07;2.63;;;;;;;5.62;100.00;99038.47;5056091;28;20086;-78
2024/01/22 03:00:08;;;;;;;8.82;2.20;;;;;;;5.35;100.00;99023.16;5027206;28;20386;-77
2024/01/22 03:02:35;;;;;;;5.03;1.10;;;;;;;4.92;100.00;99028.25;5038993;28;20102;-77
2024/01/22 03:05:00;;;;;;;1.70;1.17;;;;;;;4.65;100.00;99035.00;5008328;28;20040;-77
2024/01/22 03:07:26;;;;;;;2.38;1.10;;;;;;;4.55;100.00;99051.22;5021190;28;20036;-78
2024/01/22 03:09:52;;;;;;;6.45;1.17;;;;;;;4.65;100.00;99061.63;5067888;28;20037;-77
2024/01/22 03:12:17;;;;;;;3.10;1.23;;;;;;;4.82;100.00;99069.31;5054686;28;20036;-77
2024/01/22 03:14:43;;;;;;;2.60;1.10;;;;;;;4.84;100.00;99063.78;5038126;28;20036;-77
2024/01/22 03:17:09;;;;;;;2.30;0.82;;;;;;;4.78;100.00;99086.63;5023020;28;20383;-77
2024/01/22 03:19:36;;;;;;;2.75;0.77;;;;;;;4.69;100.00;99071.75;5039157;28;20042;-77
2024/01/22 03:22:02;;;;;;;3.67;1.52;;;;;;;4.68;100.00;99078.06;5025671;28;20036;-77
2024/01/22 03:24:28;;;;;;;1.77;1.10;;;;;;;4.72;100.00;99089.19;5057265;28;20074;-77
2024/01/22 03:26:54;;;;;;;8.25;2.10;;;;;;;4.68;100.00;99086.03;5072652;28;20123;-77
2024/01/22 03:29:19;;;;;;;13.63;3.40;;;;;;;4.67;100.00;99081.75;5023349;28;20119;-77
2024/01/22 03:31:45;;;;;;;12.18;1.65;;;;;;;4.65;100.00;99088.25;5038240;28;20040;-77
2024/01/22 03:34:11;;;;;;;6.13;1.52;;;;;;;4.61;100.00;99093.13;5021764;28;20139;-77
2024/01/22 03:36:37;;;;;;;10.15;2.40;;;;;;;4.73;100.00;99099.66;5029672;28;20131;-77
2024/01/22 03:39:04;;;;;;;15.55;2.15;;;;;;;4.95;100.00;99110.44;5033404;28;20044;-77
2024/01/22 03:41:29;;;;;;;10.32;2.17;;;;;;;5.18;100.00;99121.91;5022504;28;20105;-77
2024/01/22 03:43:55;;;;;;;15.57;3.17;;;;;;;5.35;100.00;99132.44;5023197;28;20373;-77
2024/01/22 03:46:21;;;;;;;10.20;3.65;;;;;;;5.42;100.00;99160.81;5022264;28;20064;-77
2024/01/22 03:48:46;;;;;;;3.67;1.77;;;;;;;5.12;100.00;99159.94;5022852;28;20541;-79
2024/01/22 03:51:12;;;;;;;0.77;0.60;;;;;;;4.85;100.00;99159.47;5037559;28;20063;-78
2024/01/22 03:53:38;;;;;;;2.40;1.42;;;;;;;4.59;100.00;99170.47;5023124;28;20036;-77
2024/01/22 03:56:05;;;;;;;3.13;1.48;;;;;;;4.38;100.00;99172.94;5023625;28;20479;-78
2024/01/22 03:58:32;;;;;;;0.60;0.60;;;;;;;4.16;100.00;99170.06;5038403;28;20468;-78
2024/01/22 04:00:59;;;;;;;2.20;1.55;;;;;;;3.96;100.00;99166.97;5072320;28;20040;-77
2024/01/22 04:03:24;;;;;;;3.15;1.50;;;;;;;3.86;100.00;99178.81;5039039;28;20051;-77
2024/01/22 04:05:50;;;;;;;3.50;0.77;;;;;;;3.79;100.00;99175.19;5020596;28;20471;-78
2024/01/22 04:08:15;;;;;;;3.13;1.27;;;;;;;3.83;100.00;99184.47;5022519;28;20361;-77
2024/01/22 04:10:42;;;;;;;1.02;0.95;;;;;;;3.91;100.00;99187.09;5022306;28;20044;-77
2024/01/22 04:13:08;;;;;;;0.40;0.40;;;;;;;4.06;100.00;99195.22;5021655;28;20043;-77
2024/01/22 04:15:34;;;;;;;0.90;0.90;;;;;;;4.21;100.00;99198.81;5023852;28;20122;-77
2024/01/22 04:18:00;;;;;;;1.27;0.98;;;;;;;4.29;100.00;99195.28;5022437;28;20387;-77
2024/01/22 04:20:26;;;;;;;0.70;0.70;;;;;;;4.32;100.00;99195.75;5039396;28;20028;-76
2024/01/22 04:22:52;;;;;;;0.63;0.63;;;;;;;4.33;100.00;99205.38;5038377;28;20075;-77
2024/01/22 04:25:21;;;;;;;3.75;1.10;;;;;;;4.28;100.00;99202.41;5054153;28;20123;-77
2024/01/22 04:27:47;;;;;;;2.05;0.70;;;;;;;4.25;100.00;99207.25;5037923;28;20054;-77
2024/01/22 04:30:13;;;;;;;0.70;0.70;;;;;;;4.24;100.00;99217.09;5022790;28;20028;-77
2024/01/22 04:32:38;;;;;;;1.73;0.70;;;;;;;4.34;100.00;99215.03;5037713;28;20044;-76
2024/01/22 04:35:05;;;;;;;4.68;1.23;;;;;;;4.57;100.00;99222.22;5035105;28;20462;-77
2024/01/22 04:37:31;;;;;;;3.47;2.30;;;;;;;4.69;100.00;99242.16;5021447;28;20036;-77
2024/01/22 04:40:10;;;;;;;4.20;1.73;;;;;;;4.74;100.00;99247.78;5021561;28;20126;-77
2024/01/22 04:42:36;;;;;;;0.88;0.73;;;;;;;4.66;100.00;99250.50;5037559;28;20059;-77
2024/01/22 04:45:02;;;;;;;0.70;0.70;;;;;;;4.58;100.00;99254.00;5022901;28;20475;-77
2024/01/22 04:47:27;;;;;;;1.45;1.33;;;;;;;4.47;100.00;99259.69;5037662;28;20075;-77
2024/01/22 04:49:53;;;;;;;4.45;1.38;;;;;;;4.34;100.00;99268.25;5054775;28;20048;-77
2024/01/22 04:52:19;;;;;;;3.38;1.38;;;;;;;4.31;100.00;99262.44;5035813;28;20044;-77
2024/01/22 04:54:44;;;;;;;2.50;1.00;;;;;;;4.34;100.00;99276.25;5054532;28;20032;-77
2024/01/22 04:57:10;;;;;;;2.35;0.90;;;;;;;4.38;100.00;99266.91;5040460;28;20036;-77
2024/01/22 04:59:36;;;;;;;2.25;1.40;;;;;;;4.51;100.00;99271.69;5019693;28;20028;-77
2024/01/22 05:02:01;;;;;;;2.63;1.02;;;;;;;4.51;100.00;99271.69;5072078;28;20033;-76
2024/01/22 05:04:27;;;;;;;4.60;1.45;;;;;;;4.45;100.00;99284.84;5086670;28;20537;-77
2024/01/22 05:06:52;;;;;;;0.88;0.88;;;;;;;4.38;100.00;99288.19;5020422;28;20472;-77
2024/01/22 05:09:18;;;;;;;3.08;1.10;;;;;;;4.45;100.00;99291.00;5021747;28;20040;-77
2024/01/22 05:11:44;;;;;;;2.13;1.00;;;;;;;4.61;100.00;99293.59;5019699;28;20449;-77
2024/01/22 05:14:09;;;;;;;1.20;0.93;;;;;;;4.77;100.00;99319.31;5040440;28;20094;-77
2024/01/22 05:16:37;;;;;;;3.70;1.25;;;;;;;4.80;100.00;99332.28;5033996;28;20542;-77
2024/01/22 05:19:02;;;;;;;2.80;1.20;;;;;;;4.69;100.00;99340.66;5021281;28;20090;-77
2024/01/22 05:21:28;;;;;;;0.90;0.90;;;;;;;4.51;100.00;99334.72;5038216;28;20028;-77
2024/01/22 05:23:54;;;;;;;2.30;1.50;;;;;;;4.42;100.00;99344.59;5054621;28;20510;-77
2024/01/22 05:26:20;;;;;;;2.40;1.33;;;;;;;4.43;100.00;99348.91;5021205;28;20490;-77
2024/01/22 05:28:46;;;;;;;4.10;1.00;;;;;;;4.41;100.00;99349.06;5038970;28;20538;-77
2024/01/22 05:31:12;;;;;;;3.45;0.93;;;;;;;4.43;100.00;99353.41;5039060;28;20036;-77
2024/01/22 05:33:37;;;;;;;0.70;0.70;;;;;;;4.36;100.00;99361.22;5022459;28;20111;-77
2024/01/22 05:36:06;;;;;;;4.40;1.20;;;;;;;4.29;100.00;99361.06;5020912;28;20045;-77
2024/01/22 05:38:32;;;;;;;3.25;2.85;;;;;;;4.20;100.00;99351.44;5035792;28;20056;-77
2024/01/22 05:40:58;;;;;;;1.00;0.93;;;;;;;4.33;100.00;99353.56;5038451;28;20067;-77
2024/01/22 05:43:23;;;;;;;2.17;1.02;;;;;;;4.41;100.00;99365.03;5040662;28;20545;-77
2024/01/22 05:45:49;;;;;;;1.05;0.95;;;;;;;4.47;100.00;99363.50;5026021;28;20029;-77
2024/01/22 05:48:15;;;;;;;2.83;1.23;;;;;;;4.52;100.00;99370.97;5024475;28;20037;-78
2024/01/22 05:50:40;;;;;;;8.75;1.17;;;;;;;4.56;100.00;99372.31;5041215;28;20047;-77
2024/01/22 05:53:06;;;;;;;9.30;1.95;;;;;;;4.66;100.00;99364.97;5025968;28;20116;-77
2024/01/22 05:55:32;;;;;;;6.15;2.15;;;;;;;4.75;100.00;99371.91;5025864;28;20120;-77
2024/01/22 05:57:57;;;;;;;1.35;1.25;;;;;;;4.81;100.00;99367.72;5023837;28;20032;-77
2024/01/22 06:00:23;;;;;;;2.00;0.95;;;;;;;4.89;100.00;99365.03;5024127;28;20066;-78
2024/01/22 06:02:49;;;;;;;5.68;1.67;;;;;;;4.97;100.00;99382.81;5040282;28;20074;-78
2024/01/22 06:05:14;;;;;;;2.35;1.45;;;;;;;4.97;100.00;99404.13;5040855;28;20040;-78
2024/01/22 06:07:40;;;;;;;0.77;0.77;;;;;;;4.84;100.00;99409.97;5039518;28;20036;-78
2024/01/22 06:10:07;;;;;;;5.97;2.17;;;;;;;4.67;100.00;99405.72;5038677;28;20037;-78
2024/01/22 06:12:34;;;;;;;4.07;1.02;;;;;;;4.55;100.00;99414.09;5023938;28;20089;-77
2024/01/22 06:15:01;;;;;;;1.45;1.35;;;;;;;4.46;100.00;99414.25;5041680;28;20032;-77
2024/01/22 06:17:31;;;;;;;0.70;0.70;;;;;;;4.40;100.00;99413.94;5022921;28;20051;-76
2024/01/22 06:20:00;;;;;;;0.60;0.60;;;;;;;4.43;100.00;99418.09;5040029;28;20058;-77
2024/01/22 06:22:29;;;;;;;0.60;0.60;;;;;;;4.49;100.00;99419.25;5024866;28;20024;-77
2024/01/22 06:24:54;;;;;;;2.58;1.17;;;;;;;4.62;100.00;99448.81;5025741;28;20043;-77
2024/01/22 06:27:21;;;;;;;5.55;1.25;;;;;;;4.65;100.00;99437.84;5070283;28;20032;-77
2024/01/22 06:29:47;;;;;;;1.45;0.80;;;;;;;4.53;100.00;99447.19;5046169;28;20047;-77
2024/01/22 06:32:13;;;;;;;0.73;0.73;;;;;;;4.33;100.00;99434.22;5022555;28;20024;-77
2024/01/22 06:34:39;;;;;;;0.65;0.65;;;;;;;4.28;100.00;99444.53;5025246;28;20052;-77
2024/01/22 06:37:04;;;;;;;0.70;0.70;;;;;;;4.31;100.00;99443.38;5040222;28;20020;-77
2024/01/22 06:39:30;;;;;;;0.80;0.80;;;;;;;4.35;100.00;99460.69;5023465;28;20036;-77
2024/01/22 06:41:56;;;;;;;0.82;0.82;;;;;;;4.48;100.00;99469.00;5023793;28;20047;-77
2024/01/22 06:44:22;;;;;;;0.50;0.50;;;;;;;4.57;100.00;99461.81;5039989;28;20036;-77
2024/01/22 06:46:47;;;;;;;0.50;0.50;;;;;;;4.56;100.00;99468.16;5040116;28;20072;-77
2024/01/22 06:49:13;;;;;;;0.55;0.55;;;;;;;4.54;100.00;99470.97;5040223;28;20040;-76
2024/01/22 06:51:39;;;;;;;0.50;0.50;;;;;;;4.50;100.00;99474.13;5021554;28;20115;-77
2024/01/22 06:54:04;;;;;;;0.50;0.50;;;;;;;4.44;100.00;99469.47;5024691;28;20499;-76
2024/01/22 06:56:31;;;;;;;0.57;0.57;;;;;;;4.36;100.00;99473.81;5040874;28;20480;-77
2024/01/22 06:58:57;;;;;;;0.50;0.50;;;;;;;4.28;100.00;99476.47;5024417;28;20122;-77
2024/01/22 07:01:30;;;;;;;0.50;0.50;;;;;;;4.17;100.00;99484.78;5042193;28;20132;-77
2024/01/22 07:03:56;;;;;;;;;;;;;;;4.08;100.00;99491.94;5041735;28;20032;-76
2024/01/22 07:06:24;;;;;;;0.47;0.47;;;;;;;4.12;100.00;99492.44;5022571;28;19920;-76
2024/01/22 07:08:49;;;;;;;0.47;0.47;;;;;;;4.13;100.00;99504.75;5026482;28;20044;-76
2024/01/22 07:11:15;;;;;;;0.40;0.40;;;;;;;4.19;100.00;99502.25;5028021;28;20032;-77
2024/01/22 07:13:41;;;;;;;0.50;0.50;;;;;;;4.31;100.00;99512.56;5057938;28;20024;-76
2024/01/22 07:16:07;;;;;;;2.42;1.27;;;;;;;4.66;100.00;99510.53;5033595;28;20055;-76
2024/01/22 07:18:33;;;;;;;1.98;1.35;;;;;;;4.84;100.00;99496.06;5040751;28;20036;-76
2024/01/22 07:21:00;;;;;;;4.22;2.15;;;;;;;4.80;100.00;99507.22;5024788;28;20064;-76
2024/01/22 07:23:26;;;;;;;4.47;1.30;;;;;;;4.68;100.00;99509.38;5040165;28;20468;-76
2024/01/22 07:25:54;;;;;;;0.77;0.77;;;;;;;4.55;100.00;99520.56;5040246;28;20464;-76
2024/01/22 07:28:20;;;;;;;0.73;0.70;;;;;;;4.38;100.00;99527.69;5039586;28;20397;-76
2024/01/22 07:30:48;;;;;;;2.47;0.98;;;;;;;4.28;100.00;99532.34;5022981;28;20594;-76
2024/01/22 07:33:13;;;;;;;1.15;0.90;;;;;;;4.22;100.00;99540.19;5022685;28;20388;-76
2024/01/22 07:35:39;;;;;;;0.85;0.85;;;;;;;4.13;100.00;99544.66;5022803;28;20070;-76
2024/01/22 07:38:07;;;;;;;1.17;1.08;;;;;;;4.03;100.00;99541.31;5023851;28;20373;-76
2024/01/22 07:40:33;;;;;;;0.98;0.98;;;;;;;3.92;100.00;99545.94;5021418;28;20051;-76
2024/01/22 07:42:58;;;;;;;5.38;0.82;;;;;;;3.82;100.00;99560.38;5055995;28;20044;-77
2024/01/22 07:45:24;;;;;;;0.60;0.60;;;;;;;3.79;100.00;99558.03;5018361;28;20474;-76
2024/01/22 07:47:50;;;;;;;0.52;0.52;;;;;;;3.99;100.00;99553.25;5021126;28;20043;-76
2024/01/22 07:50:16;;;;;;;0.80;0.80;;;;;;;4.29;100.00;99563.31;5054208;28;20472;-76
2024/01/22 07:52:42;;;;;;;1.83;1.13;;;;;;;4.53;100.00;99580.28;5028834;28;20043;-76
2024/01/22 07:55:08;;;;;;;0.85;0.85;;;;;;;4.51;100.00;99576.97;5023467;28;20040;-77
2024/01/22 07:57:34;;;;;;;4.35;1.38;;;;;;;4.46;100.00;99587.28;5039941;28;20028;-77
2024/01/22 08:00:00;;;;;;;0.80;0.80;;;;;;;4.37;100.00;99581.13;5039904;28;20135;-77
2024/01/22 08:02:26;;;;;;;1.05;0.93;;;;;;;4.29;100.00;99592.56;5023098;28;20036;-77
2024/01/22 08:04:52;;;;;;;1.35;0.95;;;;;;;4.24;100.00;99594.88;5018459;28;20085;-77
2024/01/22 08:07:19;;;;;;;5.00;1.52;;;;;;;4.12;100.00;99599.66;5022727;28;20040;-77
2024/01/22 08:09:48;;;;;;;0.70;0.70;;;;;;;4.08;100.00;99609.00;5039427;28;20115;-76
2024/01/22 08:12:14;;;;;;;1.02;0.80;;;;;;;4.06;100.00;99615.47;5023273;28;20028;-76
2024/01/22 08:14:40;;;;;;;1.85;1.00;;;;;;;4.20;100.00;99625.47;5039363;28;20044;-76
2024/01/22 08:17:05;;;;;;;3.72;1.92;;;;;;;4.23;100.00;99617.16;5039575;28;20504;-76
2024/01/22 08:19:33;;;;;;;0.70;0.70;;;;;;;4.26;100.00;99626.63;5022368;28;20469;-76
2024/01/22 08:22:01;;;;;;;4.82;1.83;;;;;;;4.20;100.00;99630.78;5039780;28;20033;-76
2024/01/22 08:24:29;;;;;;;2.83;1.30;;;;;;;4.15;100.00;99635.75;5028918;28;20033;-77
2024/01/22 08:26:55;;;;;;;3.38;1.23;;;;;;;4.17;100.00;99634.59;5031868;28;20080;-76
2024/01/22 08:29:20;;;;;;;0.70;0.70;;;;;;;4.33;100.00;99643.63;5035846;28;20494;-77
2024/01/22 08:31:46;;;;;;;1.13;1.13;;;;;;;4.53;100.00;99660.16;5019307;28;20040;-76
2024/01/22 08:34:12;;;;;;;1.67;0.77;;;;;;;4.61;100.00;99662.81;5048619;28;20131;-76
2024/01/22 08:36:37;;;;;;;3.45;0.90;;;;;;;4.70;100.00;99666.31;5042656;28;20040;-76
2024/01/22 08:39:03;;;;;;;4.22;1.42;;;;;;;4.73;100.00;99673.97;5075476;28;20097;-76
2024/01/22 08:41:29;;;;;;;1.58;1.08;;;;;;;4.77;100.00;99685.97;5059103;28;20097;-76
2024/01/22 08:43:55;;;;;;;5.43;1.75;;;;;;;4.84;100.00;99686.97;5031532;28;20415;-76
2024/01/22 08:46:21;;;;;;;0.93;0.73;;;;;;;4.91;100.00;99689.81;5052218;28;20167;-77
2024/01/22 08:48:46;;;;;;;8.35;1.38;;;;;;;5.07;100.00;99703.16;5019309;28;20083;-77
2024/01/22 08:51:12;;;;;;;1.95;0.90;;;;;;;5.12;100.00;99707.97;5035479;28;20044;-77
2024/01/22 08:53:38;;;;;;;1.33;1.13;;;;;;;4.98;100.00;99702.31;5038208;28;20052;-77
2024/01/22 08:56:04;;;;;;;1.38;1.10;;;;;;;4.90;100.00;99702.31;5034907;28;20047;-76
2024/01/22 08:58:29;;;;;;;2.70;1.48;;;;;;;4.75;100.00;99704.78;5019226;28;20044;-77
2024/01/22 09:00:55;;;;;;;1.38;1.02;;;;;;;4.63;100.00;99703.41;5054838;28;20025;-77
2024/01/22 09:03:24;;;;;;;16.38;1.60;;;;;;;4.77;100.00;99715.28;5040306;28;20036;-76
2024/01/22 09:05:50;;;;;;;2.85;1.33;;;;;;;4.85;100.00;99708.13;5022183;28;20068;-76
2024/01/22 09:08:16;;;;;;;4.13;1.75;;;;;;;4.96;100.00;99720.28;5022623;28;20079;-76
2024/01/22 09:10:41;;;;;;;2.58;2.25;;;;;;;5.11;100.00;99723.13;5021589;28;20037;-76
2024/01/22 09:13:09;;;;;;;5.22;2.47;;;;;;;5.38;100.00;99726.47;5021765;28;20044;-76
2024/01/22 09:15:35;;;;;;;3.42;1.52;;;;;;;5.56;100.00;99731.59;5017162;28;20045;-76
2024/01/22 09:18:01;;;;;;;4.55;1.42;;;;;;;5.65;100.00;99747.44;5036871;28;20048;-76
2024/01/22 09:20:27;;;;;;;7.43;1.80;;;;;;;5.38;100.00;99750.47;5039419;28;20480;-77
2024/01/22 09:22:53;;;;;;;5.75;1.77;;;;;;;5.12;100.00;99740.78;5023164;28;20036;-77
2024/01/22 09:25:20;;;;;;;3.53;1.05;;;;;;;5.00;100.00;99739.44;5039212;28;20080;-77
2024/01/22 09:27:48;;;;;;;0.60;0.60;;;;;;;4.90;100.00;99758.25;5074294;28;20032;-76
2024/01/22 09:30:17;;;;;;;0.50;0.50;;;;;;;4.94;100.00;99780.06;5059117;28;20040;-76
2024/01/22 09:32:43;;;;;;;0.60;0.60;;;;;;;5.18;100.00;99781.91;5024822;28;20035;-76
2024/01/22 09:35:09;;;;;;;0.52;0.52;;;;;;;5.32;100.00;99769.75;5025478;28;20032;-76
2024/01/22 09:37:34;;;;;;;0.60;0.60;;;;;;;5.35;100.00;99782.78;5026613;28;20048;-75
2024/01/22 09:40:00;;;;;;;0.50;0.50;;;;;;;5.24;100.00;99787.44;5030958;28;20119;-76
2024/01/22 09:42:29;;;;;;;0.60;0.60;;;;;;;5.21;100.00;99792.25;5062312;28;20093;-76
2024/01/22 09:44:57;;;;;;;0.65;0.65;;;;;;;5.34;100.00;99787.25;5052659;28;20051;-75
2024/01/22 09:47:22;;;;;;;0.60;0.60;;;;;;;5.72;100.00;99793.78;5026673;28;20028;-76
2024/01/22 09:49:49;;;;;;;0.70;0.70;;;;;;;5.95;100.00;99787.75;5025825;28;20038;-76
2024/01/22 09:52:16;;;;;;;0.50;0.50;;;;;;;5.98;100.00;99781.25;5026088;28;20040;-76
2024/01/22 09:54:42;;;;;;;0.57;0.57;;;;;;;6.00;100.00;99792.59;5058437;28;20642;-76
2024/01/22 09:57:18;;;;;;;0.82;0.82;;;;;;;6.19;100.00;99780.69;5021735;28;20473;-76
2024/01/22 09:59:44;;;;;;;3.17;1.25;;;;;;;6.32;100.00;99775.66;5060401;28;20037;-77
2024/01/22 10:02:16;;;;;;;4.85;1.23;;;;;;;6.48;100.00;99786.25;5058386;28;20092;-76
2024/01/22 10:19:08;;;;;;;3.47;1.40;;;;;;;6.66;100.00;99834.09;5130888;27;20386;-76
2024/01/22 10:21:35;;;;;;;6.07;1.55;;;;;;;6.11;100.00;99865.16;5113968;28;20114;-76
2024/01/22 10:24:05;;;;;;;12.32;2.25;;;;;;;5.77;100.00;99851.09;5113615;28;20035;-76
2024/01/22 10:26:32;;;;;;;2.33;1.35;;;;;;;5.48;100.00;99863.94;5113391;28;20027;-75
2024/01/22 10:29:15;;;;;;;1.67;1.00;;;;;;;5.28;100.00;99871.38;5096471;28;20042;-76
2024/01/22 10:31:57;;;;;;;12.85;2.47;;;;;;;5.25;100.00;99870.88;5130134;28;20020;-75
2024/01/22 10:34:28;;;;;;;0.50;0.50;;;;;;;5.51;100.00;99860.09;5113357;28;20023;-76
2024/01/22 10:37:23;;;;;;;0.50;0.50;;;;;;;5.39;100.00;99858.75;5096261;28;20029;-75
2024/01/22 10:40:03;;;;;;;0.47;0.47;;;;;;;5.15;100.00;99855.03;5083356;28;20055;-75
2024/01/22 10:42:29;;;;;;;0.50;0.50;;;;;;;5.10;100.00;99867.19;5097536;28;20019;-75
2024/01/22 10:44:57;;;;;;;0.60;0.60;;;;;;;5.29;100.00;99878.41;5095809;28;20031;-76
2024/01/22 10:47:23;;;;;;;0.60;0.60;;;;;;;5.93;100.00;99876.00;5096337;28;20064;-75
2024/01/22 10:49:51;;;;;;;0.50;0.50;;;;;;;7.02;100.00;99879.88;5095709;28;20065;-76
2024/01/22 10:52:17;;;;;;;0.60;0.60;;;;;;;7.55;100.00;99889.97;5112622;28;20032;-76
2024/01/22 10:54:43;;;;;;;0.93;0.93;;;;;;;7.38;100.00;99895.41;5129883;28;20035;-75
2024/01/22 10:57:09;;;;;;;0.40;0.40;;;;;;;6.79;100.00;99903.84;5096199;28;20051;-75
2024/01/22 10:59:38;;;;;;;0.60;0.60;;;;;;;6.64;100.00;99910.91;5095930;28;20035;-75
2024/01/22 11:02:14;;;;;;;0.50;0.50;;;;;;;6.59;100.00;99922.13;5129701;28;20129;-75
2024/01/22 11:04:47;;;;;;;0.60;0.60;;;;;;;6.49;100.00;99929.47;5096584;28;20103;-75
2024/01/22 11:07:17;;;;;;;0.60;0.60;;;;;;;6.62;100.00;99923.63;5097487;28;20062;-76
2024/01/22 11:09:45;;;;;;;0.60;0.60;;;;;;;7.09;100.00;99933.47;5129713;28;20035;-76
2024/01/22 11:12:14;;;;;;;0.50;0.50;;;;;;;8.15;100.00;99940.84;5112626;28;20032;-76
2024/01/22 11:14:41;;;;;;;0.50;0.50;;;;;;;8.83;100.00;99942.75;5112517;28;20042;-76
2024/01/22 11:17:09;;;;;;;0.52;0.52;;;;;;;8.95;100.00;99954.69;5112179;28;20039;-76
2024/01/22 11:19:36;;;;;;;0.60;0.60;;;;;;;9.11;100.00;99962.53;5118169;28;20059;-77
2024/01/22 11:22:22;;;;;;;0.60;0.60;;;;;;;9.36;100.00;99962.22;5081982;28;20043;-77
2024/01/22 11:25:01;;;;;;;0.50;0.50;;;;;;;8.79;100.00;99969.94;5082912;28;20122;-77
2024/01/22 11:27:47;;;;;;;0.50;0.50;;;;;;;7.88;100.00;99979.69;5116504;28;20041;-76
2024/01/22 11:30:25;;;;;;;2.60;1.38;;;;;;;7.01;100.00;99987.81;5098299;28;20096;-76
2024/01/22 11:32:51;;;;;;;2.38;1.05;;;;;;;6.50;100.00;99997.91;5098653;28;20042;-76
2024/01/22 11:35:37;;;;;;;2.40;1.17;;;;;;;6.47;100.00;99990.22;5081439;28;20432;-76
2024/01/22 11:38:04;;;;;;;1.17;1.08;;;;;;;6.98;100.00;100001.50;5115522;28;20027;-76
2024/01/22 11:40:50;;;;;;;6.22;1.45;;;;;;;7.65;100.00;100003.75;5098564;28;20040;-76
2024/01/22 11:43:20;;;;;;;3.72;1.13;;;;;;;8.02;100.00;100009.38;5097771;28;20402;-77
2024/01/22 11:46:03;;;;;;;1.33;1.23;;;;;;;8.19;100.00;99999.41;5081655;28;20436;-77
2024/01/22 11:49:24;;;;;;;1.92;1.25;;;;;;;8.76;100.00;99991.75;5033036;28;20037;-76
2024/01/22 11:52:23;;;;;;;3.22;1.55;;;;;;;10.13;100.00;99994.72;4983900;28;20045;-77
2024/01/22 11:55:23;;;;;;;;;;;;;;;;;;;;;
2024/01/22 11:57:55;;;;;;;7.05;2.42;;;;;;;10.23;100.00;100007.81;5114701;28;20475;-76
2024/01/22 12:01:03;;;;;;;3.67;1.67;;;;;;;8.95;100.00;100021.72;5081203;28;20084;-76
2024/01/22 12:03:36;;;;;;;2.30;1.15;;;;;;;7.92;100.00;100007.78;5098146;28;20035;-76
2024/01/22 12:06:24;;;;;;;;;;;;;;;;;;;;;
2024/01/22 12:09:13;;;;;;;8.00;2.78;;;;;;;7.46;100.00;100023.75;5067559;28;20031;-76
2024/01/22 12:12:26;;;;;;;9.15;2.80;;;;;;;8.13;100.00;100041.94;5081577;28;20091;-76
2024/01/22 12:15:05;;;;;;;13.20;3.13;;;;;;;8.49;100.00;100032.50;5080994;28;20031;-76
2024/01/22 12:17:59;;;;;;;7.18;2.45;;;;;;;9.38;100.00;100020.03;5097973;28;20047;-76
2024/01/22 12:20:26;;;;;;;9.77;2.35;;;;;;;10.13;100.00;100021.56;5097290;28;20028;-76
2024/01/22 12:23:11;;;;;;;10.70;3.08;;;;;;;9.15;100.00;100040.75;5114288;28;20398;-76
2024/01/22 12:25:38;;;;;;;8.63;2.15;;;;;;;8.00;100.00;100091.75;5097741;28;20501;-76
2024/01/22 12:28:11;;;;;;;3.60;2.08;;;;;;;7.18;100.00;100074.16;5097107;28;20032;-76
2024/01/22 12:30:38;;;;;;;3.28;1.45;;;;;;;6.81;100.00;100078.19;5096156;28;20030;-76
2024/01/22 12:33:19;;;;;;;5.63;1.88;;;;;;;6.82;100.00;100095.06;5114292;28;20024;-75
2024/01/22 12:35:46;;;;;;;3.90;1.45;;;;;;;6.91;100.00;100086.06;5114323;28;20118;-76
2024/01/22 12:38:11;;;;;;;5.72;1.70;;;;;;;6.97;100.00;100088.03;5080629;28;20169;-76
2024/01/22 12:40:37;;;;;;;4.22;1.40;;;;;;;7.05;100.00;100096.03;5080151;28;20038;-75
2024/01/22 12:43:05;;;;;;;10.10;2.58;;;;;;;7.51;100.00;100091.94;5080306;28;20057;-75
2024/01/22 12:45:31;;;;;;;7.57;2.00;;;;;;;7.56;100.00;100100.28;5114004;28;20031;-76
2024/01/22 12:47:57;;;;;;;7.75;1.92;;;;;;;7.58;100.00;100108.97;5080411;28;20040;-76
2024/01/22 12:50:23;;;;;;;5.32;1.88;;;;;;;7.96;100.00;100112.66;5080615;28;20085;-76
2024/01/22 12:52:49;;;;;;;10.88;1.63;;;;;;;7.87;100.00;100121.75;5102459;28;20477;-76
2024/01/22 12:55:15;;;;;;;7.30;2.22;;;;;;;7.88;100.00;100128.75;5082708;28;20046;-75
2024/01/22 12:57:43;;;;;;;5.32;1.90;;;;;;;7.77;100.00;100127.28;5096974;28;20027;-75
2024/01/22 13:00:09;;;;;;;9.20;2.30;;;;;;;7.69;100.00;100136.19;5080243;28;20478;-75